createdAt,value
2022-08-04T00:00:02.129Z,0
2022-08-04T00:05:02.204Z,0
2022-08-04T00:10:02.031Z,0
2022-08-04T00:15:02.092Z,0
2022-08-04T00:20:02.574Z,0
2022-08-04T00:25:07.056Z,0
2022-08-04T00:30:02.047Z,0
2022-08-04T00:35:02.032Z,0
2022-08-04T00:40:02.135Z,0
2022-08-04T00:45:02.055Z,0
2022-08-04T00:50:07.859Z,0
2022-08-04T00:55:04.264Z,0
2022-08-04T01:00:02.175Z,0
2022-08-04T01:05:02.030Z,0
2022-08-04T01:10:02.056Z,0
2022-08-04T01:15:02.152Z,0
2022-08-04T01:20:03.209Z,0
2022-08-04T01:25:04.725Z,0
2022-08-04T01:30:02.078Z,0
2022-08-04T01:35:02.146Z,0
2022-08-04T01:40:02.229Z,0
2022-08-04T01:45:07.075Z,0
2022-08-04T01:50:10.061Z,0
2022-08-04T01:55:02.220Z,0
2022-08-04T02:00:02.143Z,0
2022-08-04T02:05:02.402Z,0
2022-08-04T02:10:02.104Z,0
2022-08-04T02:15:02.111Z,0
2022-08-04T02:20:07.152Z,0
2022-08-04T02:25:02.313Z,0
2022-08-04T02:30:02.115Z,0
2022-08-04T02:35:02.149Z,0
2022-08-04T02:40:02.232Z,0
2022-08-04T02:45:02.260Z,0
2022-08-04T02:50:05.239Z,0
2022-08-04T02:55:02.156Z,0
2022-08-04T03:00:02.123Z,0
2022-08-04T03:05:02.592Z,0
2022-08-04T03:10:02.302Z,0
2022-08-04T03:15:02.345Z,0
2022-08-04T03:20:06.138Z,0
2022-08-04T03:25:07.157Z,0
2022-08-04T03:30:02.300Z,0
2022-08-04T03:35:02.358Z,0
2022-08-04T03:40:02.266Z,0.363989417989418
2022-08-04T03:45:02.165Z,0.528074074074074
2022-08-04T03:50:07.877Z,0.7704338624338624
2022-08-04T03:55:03.226Z,0.9697248677248678
2022-08-04T04:00:02.202Z,1.1742962962962964
2022-08-04T04:05:02.194Z,1.1326031746031746
2022-08-04T04:10:06.078Z,1.1691111111111112
2022-08-04T04:15:02.374Z,1.3087936507936508
2022-08-04T04:20:02.836Z,1.9091534391534393
2022-08-04T04:25:02.340Z,2.5934285714285714
2022-08-04T04:30:02.354Z,3.2442962962962967
2022-08-04T04:35:02.406Z,3.72431746031746
2022-08-04T04:40:03.645Z,3.8562751322751323
2022-08-04T04:45:02.197Z,3.3877354497354495
2022-08-04T04:50:08.221Z,3.596550264550265
2022-08-04T04:55:02.457Z,4.113280423280423
2022-08-04T05:00:02.238Z,4.79031746031746
2022-08-04T05:05:02.201Z,5.2660529100529105
2022-08-04T05:10:02.266Z,4.776761904761904
2022-08-04T05:15:02.410Z,3.910550264550265
2022-08-04T05:20:02.928Z,4.722275132275132
2022-08-04T05:25:02.443Z,6.0801904761904755
2022-08-04T05:30:02.286Z,6.702910052910053
2022-08-04T05:35:02.345Z,7.130455026455026
2022-08-04T05:40:02.574Z,7.043195767195767
2022-08-04T05:45:02.375Z,7.8464761904761895
2022-08-04T05:50:05.109Z,10.439407407407407
2022-08-04T05:55:02.276Z,13.773534391534392
2022-08-04T06:00:25.435Z,11.7524126984127
2022-08-04T06:05:02.314Z,8.743449735449735
2022-08-04T06:10:02.302Z,9.951492063492063
2022-08-04T06:15:02.547Z,11.605587301587303
2022-08-04T06:20:18.647Z,10.771798941798941
2022-08-04T06:25:02.413Z,15.811449735449736
2022-08-04T06:30:02.501Z,16.813894179894177
2022-08-04T06:35:02.430Z,17.761936507936507
2022-08-04T06:40:02.762Z,18.203555555555557
2022-08-04T06:45:02.365Z,21.815301587301587
2022-08-04T06:51:23.944Z,24.058306878306883
2022-08-04T06:55:02.337Z,26.043513227513227
2022-08-04T07:00:02.385Z,23.447089947089946
2022-08-04T07:05:07.314Z,24.137650793650796
2022-08-04T07:10:02.349Z,27.079714285714285
2022-08-04T07:15:02.339Z,28.24495238095238
2022-08-04T07:20:02.680Z,26.39196825396826
2022-08-04T07:25:02.507Z,32.372402116402114
2022-08-04T07:30:02.398Z,21.097322751322753
2022-08-04T07:35:02.388Z,40.49080423280424
2022-08-04T07:40:02.484Z,32.63483597883598
2022-08-04T07:45:02.500Z,43.98884656084656
2022-08-04T07:50:05.077Z,48.36194708994709
2022-08-04T07:55:02.388Z,43.74716402116402
2022-08-04T08:00:02.394Z,41.94740740740741
2022-08-04T08:05:02.664Z,44.62995767195767
2022-08-04T08:10:02.396Z,43.52313227513227
2022-08-04T08:15:02.491Z,46.28934391534391
2022-08-04T08:20:02.818Z,44.57933333333334
2022-08-04T08:25:02.602Z,46.10165079365079
2022-08-04T08:30:02.409Z,53.40567195767196
2022-08-04T08:35:02.536Z,52.69995767195766
2022-08-04T08:40:02.566Z,50.07766137566138
2022-08-04T08:45:02.610Z,53.3745291005291
2022-08-04T08:50:07.705Z,52.36160846560847
2022-08-04T08:55:02.446Z,54.57805291005291
2022-08-04T09:00:02.599Z,57.656740740740744
2022-08-04T09:05:02.503Z,56.10154497354498
2022-08-04T09:10:02.524Z,58.153989417989415
2022-08-04T09:15:02.459Z,60.7785291005291
2022-08-04T09:20:03.015Z,58.065259259259264
2022-08-04T09:25:02.487Z,54.83770370370371
2022-08-04T09:30:02.466Z,55.33798941798942
2022-08-04T09:35:03.744Z,61.471925925925916
2022-08-04T09:40:02.518Z,64.08837037037037
2022-08-04T09:45:06.040Z,65.97990476190478
2022-08-04T09:50:05.240Z,64.13040211640212
2022-08-04T09:55:02.637Z,60.849735449735455
2022-08-04T10:00:02.496Z,57.44980952380953
2022-08-04T10:05:02.483Z,66.33501587301588
2022-08-04T10:10:02.606Z,73.52209523809523
2022-08-04T10:15:02.844Z,71.1045925925926
2022-08-04T10:20:02.790Z,67.9434603174603
2022-08-04T10:25:02.554Z,67.00080423280423
2022-08-04T10:30:02.671Z,70.99030687830688
2022-08-04T10:35:02.521Z,75.53444444444445
2022-08-04T10:40:02.575Z,72.06173544973545
2022-08-04T10:45:02.531Z,75.420126984127
2022-08-04T10:50:05.154Z,75.56742857142858
2022-08-04T10:55:02.549Z,73.78382010582011
2022-08-04T11:00:03.623Z,73.2169947089947
2022-08-04T11:05:02.818Z,72.87733333333334
2022-08-04T11:10:02.578Z,75.52966137566138
2022-08-04T11:15:02.574Z,75.68406349206349
2022-08-04T11:20:32.041Z,75.13161904761904
2022-08-04T11:25:02.592Z,75.092
2022-08-04T11:30:02.601Z,74.63424338624338
2022-08-04T11:35:02.574Z,67.19320634920635
2022-08-04T11:40:02.791Z,74.48871957671957
2022-08-04T11:45:02.643Z,75.05801058201058
2022-08-04T11:50:05.371Z,71.89787301587302
2022-08-04T11:55:02.749Z,70.5871746031746
2022-08-04T12:00:04.002Z,65.30589417989418
2022-08-04T12:05:02.583Z,78.41502645502646
2022-08-04T12:10:02.854Z,72.24156613756614
2022-08-04T12:15:02.602Z,64.19973544973546
2022-08-04T12:20:05.393Z,72.30395767195768
2022-08-04T12:25:02.649Z,61.176878306878315
2022-08-04T12:30:56.390Z,62.06929100529101
2022-08-04T12:35:02.687Z,56.719968253968254
2022-08-04T12:40:17.066Z,58.683851851851855
2022-08-04T12:45:02.887Z,58.088402116402115
2022-08-04T12:50:07.826Z,70.70757671957672
2022-08-04T12:55:02.668Z,66.84139682539683
2022-08-04T13:00:02.779Z,60.44444444444444
2022-08-04T13:05:02.796Z,53.80285714285714
2022-08-04T13:10:02.657Z,69.97448677248677
2022-08-04T13:15:02.803Z,64.24808465608466
2022-08-04T13:20:03.111Z,70.35416931216932
2022-08-04T13:30:03.655Z,69.80448677248677
2022-08-04T13:30:24.874Z,64.57871957671958
2022-08-04T13:35:02.887Z,70.8441798941799
2022-08-04T13:40:02.722Z,63.181904761904775
2022-08-04T13:45:02.712Z,57.11448677248677
2022-08-04T13:50:10.953Z,65.12065608465608
2022-08-04T13:55:02.695Z,69.49461375661376
2022-08-04T14:00:00.994Z,69.51146031746033
2022-08-04T14:05:01.166Z,67.69396825396825
2022-08-04T14:10:03.291Z,65.89287830687832
2022-08-04T14:15:01.045Z,62.79973544973545
2022-08-04T14:20:03.640Z,63.11359788359788
2022-08-04T14:25:01.151Z,63.875291005291004
2022-08-04T14:30:01.102Z,59.73974603174603
2022-08-04T14:35:01.114Z,61.080878306878304
2022-08-04T14:40:09.104Z,47.38802116402116
2022-08-04T14:45:01.195Z,40.42691005291005
2022-08-04T14:50:05.729Z,57.001470899470895
2022-08-04T14:55:01.053Z,45.37410582010582
2022-08-04T15:00:03.321Z,31.243111111111112
2022-08-04T15:05:54.700Z,57.25635978835979
2022-08-04T15:10:01.159Z,57.303703703703704
2022-08-04T15:15:14.460Z,55.48549206349206
2022-08-04T15:20:02.613Z,52.708592592592595
2022-08-04T15:25:01.089Z,50.28954497354498
2022-08-04T15:30:02.175Z,47.40620105820106
2022-08-04T15:35:01.077Z,46.45657142857142
2022-08-04T15:40:01.183Z,40.80444444444444
2022-08-04T15:45:01.108Z,35.52674074074074
2022-08-04T15:50:08.068Z,25.60180952380953
2022-08-04T15:55:01.100Z,25.00157671957672
2022-08-04T16:00:01.211Z,21.35097354497355
2022-08-04T16:05:01.412Z,28.46384126984127
2022-08-04T16:10:01.097Z,35.87686772486772
2022-08-04T16:15:01.103Z,32.58934391534392
2022-08-04T16:20:03.162Z,36.12299470899471
2022-08-04T16:25:01.241Z,34.738656084656085
2022-08-04T16:30:01.152Z,31.55357671957672
2022-08-04T16:35:01.150Z,28.132952380952382
2022-08-04T16:40:01.276Z,16.760973544973545
2022-08-04T16:45:01.126Z,16.16062433862434
2022-08-04T16:50:05.309Z,13.51047619047619
2022-08-04T16:55:01.276Z,5.803280423280423
2022-08-04T17:00:01.198Z,4.42573544973545
2022-08-04T17:05:06.763Z,3.2417037037037035
2022-08-04T17:10:01.187Z,2.590095238095238
2022-08-04T17:15:01.166Z,2.216772486772487
2022-08-04T17:20:02.352Z,1.9789312169312172
2022-08-04T17:25:01.237Z,1.7442433862433864
2022-08-04T17:30:01.420Z,1.80389417989418
2022-08-04T17:35:02.042Z,1.813089947089947
2022-08-04T17:40:01.280Z,1.657026455026455
2022-08-04T17:45:01.226Z,2.0300105820105823
2022-08-04T17:50:06.031Z,1.9882539682539686
2022-08-04T17:55:02.591Z,0.8031746031746032
2022-08-04T18:00:01.280Z,0
2022-08-04T18:05:06.597Z,0
2022-08-04T18:10:03.358Z,0
2022-08-04T18:15:01.226Z,0
2022-08-04T18:20:02.636Z,0
2022-08-04T18:25:01.414Z,0
2022-08-04T18:30:14.749Z,0
2022-08-04T18:35:03.536Z,0
2022-08-04T18:40:08.752Z,0
2022-08-04T18:45:01.393Z,0
2022-08-04T18:50:32.556Z,0
2022-08-04T18:55:01.561Z,0
2022-08-04T19:00:01.799Z,0
2022-08-04T19:10:01.392Z,0
2022-08-04T19:15:08.161Z,0
2022-08-04T19:20:03.126Z,0
2022-08-04T19:25:01.363Z,0
2022-08-04T19:30:01.315Z,0
2022-08-04T19:35:01.335Z,0
2022-08-04T19:40:01.441Z,0
2022-08-04T19:45:02.080Z,0
2022-08-04T19:50:10.626Z,0
2022-08-04T19:55:01.295Z,0
2022-08-04T20:00:01.455Z,0
2022-08-04T20:05:01.297Z,0
2022-08-04T20:10:04.145Z,0
2022-08-04T20:15:01.313Z,0
2022-08-04T20:20:02.499Z,0
2022-08-04T20:25:18.139Z,0
2022-08-04T20:30:01.320Z,0
2022-08-04T20:35:01.319Z,0
2022-08-04T20:40:01.562Z,0
2022-08-04T20:45:01.774Z,0
2022-08-04T20:50:08.878Z,0
2022-08-04T20:55:01.404Z,0
2022-08-04T21:00:01.300Z,0
2022-08-04T21:05:01.449Z,0
2022-08-04T21:10:01.358Z,0
2022-08-04T21:15:13.126Z,0
2022-08-04T21:20:03.089Z,0
2022-08-04T21:25:01.445Z,0
2022-08-04T21:30:01.408Z,0
2022-08-04T21:35:05.323Z,0
2022-08-04T21:40:09.126Z,0
2022-08-04T21:45:02.403Z,0
2022-08-04T21:50:05.553Z,0
2022-08-04T21:55:01.500Z,0
2022-08-04T22:00:01.643Z,0
2022-08-04T22:05:01.422Z,0
2022-08-04T22:10:02.818Z,0
2022-08-04T22:15:01.580Z,0
2022-08-04T22:20:02.479Z,0
2022-08-04T22:25:01.511Z,0
2022-08-04T22:30:01.424Z,0
2022-08-04T22:35:03.056Z,0
2022-08-04T22:40:01.723Z,0
2022-08-04T22:45:01.454Z,0
2022-08-04T22:50:27.290Z,0
2022-08-04T22:55:01.481Z,0
2022-08-04T23:00:01.608Z,0
2022-08-04T23:05:01.459Z,0
2022-08-04T23:10:01.481Z,0
2022-08-04T23:15:01.574Z,0
2022-08-04T23:20:01.734Z,0
2022-08-04T23:25:01.494Z,0
2022-08-04T23:30:01.462Z,0
2022-08-04T23:35:01.551Z,0
2022-08-04T23:40:04.157Z,0
2022-08-04T23:45:01.520Z,0
2022-08-04T23:50:05.831Z,0
2022-08-04T23:55:01.559Z,0
